Time;durP1;ratioP1;P1;durP2;ratioP2;P2;SDS_P1;SDS_P2;PMS_P1;PMS_P2;Temp;Humidity;BMP_temperature;BMP_pressure;BME280_temperature;BME280_humidity;BME280_pressure;Samples;Min_cycle;Max_cycle;Signal;HPM_P1;HPM_P2
2022/06/21 00:00:14;;;;;;;;;;;;;;;;;;2090228;28;20289;-42
2022/06/21 00:01:15;;;;;;;;;;;;;;;;;;2090411;28;19928;-42
2022/06/21 00:02:15;;;;;;;;;;;;;;;;;;2090339;28;19920;-43
2022/06/21 00:03:17;;;;;;;;;;;;;;;;;;2090280;28;19970;-42
2022/06/21 00:04:17;;;;;;;;;;;;;;;;;;2090339;28;20246;-42
2022/06/21 00:05:19;;;;;;;;;;;;;;;;;;2090276;28;19921;-42
2022/06/21 00:06:19;;;;;;;;;;;;;;;;;;2090243;28;20019;-42
2022/06/21 00:07:21;;;;;;;;;;;;;;;;;;2090391;28;19967;-42
2022/06/21 00:08:22;;;;;;;;;;;;;;;;;;2090429;28;20011;-43
2022/06/21 00:09:23;;;;;;;;;;;;;;;;;;2090279;28;19920;-42
2022/06/21 00:10:24;;;;;;;;;;;;;;;;;;2090523;28;19925;-42
2022/06/21 00:11:25;;;;;;;;;;;;;;;;;;2085625;28;20019;-45
2022/06/21 00:12:26;;;;;;;;;;;;;;;;;;2082107;28;20373;-42
2022/06/21 00:13:28;;;;;;;;;;;;;;;;;;2082450;28;19928;-45
2022/06/21 00:14:29;;;;;;;;;;;;;;;;;;2082011;28;19921;-45
2022/06/21 00:15:29;;;;;;;;;;;;;;;;;;2081979;28;19983;-46
2022/06/21 00:16:30;;;;;;;;;;;;;;;;;;2081932;28;19970;-45
2022/06/21 00:17:31;;;;;;;;;;;;;;;;;;2082040;28;19924;-45
2022/06/21 00:18:32;;;;;;;;;;;;;;;;;;2082105;28;19921;-43
2022/06/21 00:19:33;;;;;;;;;;;;;;;;;;2082006;28;19921;-43
2022/06/21 00:20:34;;;;;;;;;;;;;;;;;;2082292;28;19932;-45
2022/06/21 00:21:35;;;;;;;;;;;;;;;;;;2081928;28;19960;-46
2022/06/21 00:22:36;;;;;;;;;;;;;;;;;;2082064;28;20285;-45
2022/06/21 00:23:37;;;;;;;;;;;;;;;;;;2081966;28;20388;-45
2022/06/21 00:24:38;;;;;;;;;;;;;;;;;;2082163;28;19961;-45
2022/06/21 00:25:38;;;;;;;;;;;;;;;;;;2081994;28;19956;-46
2022/06/21 00:26:39;;;;;;;;;;;;;;;;;;2081901;28;19974;-45
2022/06/21 00:27:40;;;;;;;;;;;;;;;;;;2081793;28;19921;-46
2022/06/21 00:28:41;;;;;;;;;;;;;;;;;;2081825;28;19952;-45
2022/06/21 00:29:43;;;;;;;;;;;;;;;;;;2081893;28;19921;-45
2022/06/21 00:30:44;;;;;;;;;;;;;;;;;;2082067;28;20504;-42
2022/06/21 00:31:45;;;;;;;;;;;;;;;;;;2081959;28;19921;-42
2022/06/21 00:32:45;;;;;;;;;;;;;;;;;;2082075;28;20401;-45
2022/06/21 00:33:46;;;;;;;;;;;;;;;;;;2081944;28;19967;-45
2022/06/21 00:34:47;;;;;;;;;;;;;;;;;;2082035;28;19925;-46
2022/06/21 00:35:48;;;;;;;;;;;;;;;;;;2081976;28;19928;-46
2022/06/21 00:36:49;;;;;;;;;;;;;;;;;;2081816;28;20020;-45
2022/06/21 00:37:50;;;;;;;;;;;;;;;;;;2081880;28;19921;-45
2022/06/21 00:38:51;;;;;;;;;;;;;;;;;;2082165;28;19968;-42
2022/06/21 00:39:52;;;;;;;;;;;;;;;;;;2081983;28;19928;-43
2022/06/21 00:40:56;;;;;;;;;;;;;;;;;;2081780;28;19920;-43
2022/06/21 00:41:57;;;;;;;;;;;;;;;;;;2081835;28;19928;-43
2022/06/21 00:42:57;;;;;;;;;;;;;;;;;;2081921;28;20040;-42
2022/06/21 00:43:58;;;;;;;;;;;;;;;;;;2082197;28;19980;-46
2022/06/21 00:44:59;;;;;;;;;;;;;;;;;;2081955;28;19921;-46
2022/06/21 00:46:01;;;;;;;;;;;;;;;;;;2084240;28;19929;-45
2022/06/21 00:47:02;;;;;;;;;;;;;;;;;;2090008;28;20019;-45
2022/06/21 00:48:03;;;;;;;;;;;;;;;;;;2090109;28;19921;-46
2022/06/21 00:49:03;;;;;;;;;;;;;;;;;;2090071;28;19983;-46
2022/06/21 00:50:04;;;;;;;;;;;;;;;;;;2090015;28;20015;-45
2022/06/21 00:51:05;;;;;;;;;;;;;;;;;;2090276;28;19924;-43
2022/06/21 00:52:06;;;;;;;;;;;;;;;;;;2089990;28;19921;-42
2022/06/21 00:53:07;;;;;;;;;;;;;;;;;;2089814;28;20280;-43
2022/06/21 00:54:08;;;;;;;;;;;;;;;;;;2090034;28;19962;-42
2022/06/21 00:55:09;;;;;;;;;;;;;;;;;;2089864;28;20007;-42
2022/06/21 00:56:10;;;;;;;;;;;;;;;;;;2090064;28;20007;-42
2022/06/21 00:57:11;;;;;;;;;;;;;;;;;;2088787;28;20044;-43
2022/06/21 00:58:12;;;;;;;;;;;;;;;;;;2089892;28;19974;-42
2022/06/21 00:59:13;;;;;;;;;;;;;;;;;;2090001;28;20004;-42
2022/06/21 01:00:14;;;;;;;;;;;;;;;;;;2090089;28;20415;-43
2022/06/21 01:01:14;;;;;;;;;;;;;;;;;;2089743;28;20440;-43
2022/06/21 01:02:15;;;;;;;;;;;;;;;;;;2089937;28;20041;-43
2022/06/21 01:03:16;;;;;;;;;;;;;;;;;;2090013;28;19969;-43
2022/06/21 01:04:17;;;;;;;;;;;;;;;;;;2089949;28;20346;-43
2022/06/21 01:05:18;;;;;;;;;;;;;;;;;;2090128;28;20600;-42
2022/06/21 01:06:19;;;;;;;;;;;;;;;;;;2089839;28;19920;-43
2022/06/21 01:07:20;;;;;;;;;;;;;;;;;;2090232;28;19970;-43
2022/06/21 01:08:21;;;;;;;;;;;;;;;;;;2089769;28;20011;-43
2022/06/21 01:09:22;;;;;;;;;;;;;;;;;;2090067;28;20448;-42
2022/06/21 01:10:23;;;;;;;;;;;;;;;;;;2089952;28;19927;-43
2022/06/21 01:11:24;;;;;;;;;;;;;;;;;;2085481;28;20364;-43
2022/06/21 01:12:25;;;;;;;;;;;;;;;;;;2081711;28;19921;-43
2022/06/21 01:13:26;;;;;;;;;;;;;;;;;;2081739;28;20008;-43
2022/06/21 01:14:27;;;;;;;;;;;;;;;;;;2081595;28;20305;-43
2022/06/21 01:15:28;;;;;;;;;;;;;;;;;;2081711;28;19968;-43
2022/06/21 01:16:29;;;;;;;;;;;;;;;;;;2081644;28;20023;-43
2022/06/21 01:17:30;;;;;;;;;;;;;;;;;;2081551;28;19921;-43
2022/06/21 01:18:30;;;;;;;;;;;;;;;;;;2081947;28;20176;-43
2022/06/21 01:19:32;;;;;;;;;;;;;;;;;;2081620;28;19925;-44
2022/06/21 01:20:33;;;;;;;;;;;;;;;;;;2081646;28;20024;-43
2022/06/21 01:21:34;;;;;;;;;;;;;;;;;;2081637;28;19921;-43
2022/06/21 01:22:35;;;;;;;;;;;;;;;;;;2081896;28;20011;-43
2022/06/21 01:23:36;;;;;;;;;;;;;;;;;;2081831;28;20362;-46
2022/06/21 01:24:37;;;;;;;;;;;;;;;;;;2081544;28;20413;-45
2022/06/21 01:25:38;;;;;;;;;;;;;;;;;;2081660;28;20019;-47
2022/06/21 01:26:39;;;;;;;;;;;;;;;;;;2081495;28;20003;-46
2022/06/21 01:27:43;;;;;;;;;;;;;;;;;;2081834;28;19926;-46
2022/06/21 01:28:44;;;;;;;;;;;;;;;;;;2081486;28;19977;-45
2022/06/21 01:29:46;;;;;;;;;;;;;;;;;;2081730;28;20316;-45
2022/06/21 01:30:46;;;;;;;;;;;;;;;;;;2081542;28;19928;-43
2022/06/21 01:31:47;;;;;;;;;;;;;;;;;;2083866;28;19921;-42
2022/06/21 01:32:48;;;;;;;;;;;;;;;;;;2089674;28;19947;-42
2022/06/21 01:33:49;;;;;;;;;;;;;;;;;;2089649;28;20521;-43
2022/06/21 01:34:50;;;;;;;;;;;;;;;;;;2090203;28;19974;-43
2022/06/21 01:35:51;;;;;;;;;;;;;;;;;;2089712;28;19990;-42
2022/06/21 01:36:52;;;;;;;;;;;;;;;;;;2090108;28;19931;-43
2022/06/21 01:37:54;;;;;;;;;;;;;;;;;;2089894;28;19920;-43
2022/06/21 01:38:55;;;;;;;;;;;;;;;;;;2089677;28;20410;-43
2022/06/21 01:39:55;;;;;;;;;;;;;;;;;;2089614;28;19920;-42
2022/06/21 01:40:56;;;;;;;;;;;;;;;;;;2090059;28;20055;-42
2022/06/21 01:41:57;;;;;;;;;;;;;;;;;;2089760;28;20004;-42
2022/06/21 01:42:58;;;;;;;;;;;;;;;;;;2089743;28;20376;-42
2022/06/21 01:43:59;;;;;;;;;;;;;;;;;;2089880;28;19927;-45
2022/06/21 01:45:00;;;;;;;;;;;;;;;;;;2089733;28;19928;-43
2022/06/21 01:46:01;;;;;;;;;;;;;;;;;;2089652;28;19927;-43
2022/06/21 01:47:02;;;;;;;;;;;;;;;;;;2089785;28;19920;-43
2022/06/21 01:48:02;;;;;;;;;;;;;;;;;;2089700;28;19924;-43
2022/06/21 01:49:03;;;;;;;;;;;;;;;;;;2089749;28;19921;-43
2022/06/21 01:50:04;;;;;;;;;;;;;;;;;;2097934;28;19924;-42
2022/06/21 01:51:05;;;;;;;;;;;;;;;;;;2097854;28;19963;-43
2022/06/21 01:52:06;;;;;;;;;;;;;;;;;;2098144;28;19927;-45
2022/06/21 01:53:07;;;;;;;;;;;;;;;;;;2097857;28;19921;-45
2022/06/21 01:54:08;;;;;;;;;;;;;;;;;;2098044;28;19925;-45
2022/06/21 01:55:09;;;;;;;;;;;;;;;;;;2097804;28;20446;-45
2022/06/21 01:56:09;;;;;;;;;;;;;;;;;;2097965;28;20006;-45
2022/06/21 01:57:10;;;;;;;;;;;;;;;;;;2098506;28;19955;-43
2022/06/21 01:58:11;;;;;;;;;;;;;;;;;;2097884;28;20416;-42
2022/06/21 01:59:12;;;;;;;;;;;;;;;;;;2097976;28;19924;-43
2022/06/21 02:00:14;;;;;;;;;;;;;;;;;;2097911;28;20374;-44
2022/06/21 02:01:15;;;;;;;;;;;;;;;;;;2097823;28;20341;-44
2022/06/21 02:02:16;;;;;;;;;;;;;;;;;;2097795;28;20464;-42
2022/06/21 02:03:17;;;;;;;;;;;;;;;;;;2097861;28;20015;-43
2022/06/21 02:04:18;;;;;;;;;;;;;;;;;;2097773;28;19921;-42
2022/06/21 02:05:19;;;;;;;;;;;;;;;;;;2097856;28;19966;-43
2022/06/21 02:06:19;;;;;;;;;;;;;;;;;;2098041;28;20002;-45
2022/06/21 02:07:20;;;;;;;;;;;;;;;;;;2097905;28;20356;-47
2022/06/21 02:08:21;;;;;;;;;;;;;;;;;;2089987;28;19963;-45
2022/06/21 02:09:22;;;;;;;;;;;;;;;;;;2089580;28;20290;-47
2022/06/21 02:10:23;;;;;;;;;;;;;;;;;;2089679;28;19943;-46
2022/06/21 02:11:24;;;;;;;;;;;;;;;;;;2089707;28;19971;-44
2022/06/21 02:12:25;;;;;;;;;;;;;;;;;;2089681;28;19959;-44
2022/06/21 02:13:26;;;;;;;;;;;;;;;;;;2089457;28;20297;-44
2022/06/21 02:14:30;;;;;;;;;;;;;;;;;;2089691;28;19921;-44
2022/06/21 02:15:31;;;;;;;;;;;;;;;;;;2089571;28;19921;-44
2022/06/21 02:16:32;;;;;;;;;;;;;;;;;;2089466;28;20336;-45
2022/06/21 02:17:34;;;;;;;;;;;;;;;;;;2089588;28;19928;-44
2022/06/21 02:18:34;;;;;;;;;;;;;;;;;;2089669;28;20015;-45
2022/06/21 02:19:36;;;;;;;;;;;;;;;;;;2089451;28;19925;-44
2022/06/21 02:20:36;;;;;;;;;;;;;;;;;;2089487;28;19921;-44
2022/06/21 02:21:37;;;;;;;;;;;;;;;;;;2089526;28;19921;-44
2022/06/21 02:22:38;;;;;;;;;;;;;;;;;;2089375;28;20011;-44
2022/06/21 02:23:40;;;;;;;;;;;;;;;;;;2089662;28;20015;-44
2022/06/21 02:24:41;;;;;;;;;;;;;;;;;;2089737;28;19927;-46
2022/06/21 02:25:41;;;;;;;;;;;;;;;;;;2089516;28;20037;-48
2022/06/21 02:26:43;;;;;;;;;;;;;;;;;;2089613;28;19928;-44
2022/06/21 02:27:43;;;;;;;;;;;;;;;;;;2089481;28;19980;-44
2022/06/21 02:28:45;;;;;;;;;;;;;;;;;;2089651;28;20027;-44
2022/06/21 02:29:46;;;;;;;;;;;;;;;;;;2089957;28;19921;-44
2022/06/21 02:30:47;;;;;;;;;;;;;;;;;;2089907;28;19947;-46
2022/06/21 02:31:48;;;;;;;;;;;;;;;;;;2089359;28;20294;-46
2022/06/21 02:32:49;;;;;;;;;;;;;;;;;;2089546;28;19925;-46
2022/06/21 02:33:50;;;;;;;;;;;;;;;;;;2089471;28;20012;-46
2022/06/21 02:34:51;;;;;;;;;;;;;;;;;;2089480;28;19921;-47
2022/06/21 02:35:51;;;;;;;;;;;;;;;;;;2089373;28;19921;-47
2022/06/21 02:36:52;;;;;;;;;;;;;;;;;;2089576;28;19947;-44
2022/06/21 02:37:53;;;;;;;;;;;;;;;;;;2089398;28;19955;-42
2022/06/21 02:38:54;;;;;;;;;;;;;;;;;;2089540;28;19970;-43
2022/06/21 02:39:55;;;;;;;;;;;;;;;;;;2089729;28;20317;-46
2022/06/21 02:40:56;;;;;;;;;;;;;;;;;;2089221;28;20004;-46
2022/06/21 02:41:57;;;;;;;;;;;;;;;;;;2089626;28;19921;-46
2022/06/21 02:42:58;;;;;;;;;;;;;;;;;;2089502;28;19920;-46
2022/06/21 02:43:59;;;;;;;;;;;;;;;;;;2089367;28;20042;-48
2022/06/21 02:45:00;;;;;;;;;;;;;;;;;;2089245;28;19920;-46
2022/06/21 02:46:01;;;;;;;;;;;;;;;;;;2089394;28;20015;-46
2022/06/21 02:47:02;;;;;;;;;;;;;;;;;;2089314;28;19927;-46
2022/06/21 02:48:03;;;;;;;;;;;;;;;;;;2089343;28;20382;-46
2022/06/21 02:49:04;;;;;;;;;;;;;;;;;;2089222;28;19960;-47
2022/06/21 02:50:04;;;;;;;;;;;;;;;;;;2089377;28;20385;-47
2022/06/21 02:51:05;;;;;;;;;;;;;;;;;;2089309;28;19931;-48
2022/06/21 02:52:06;;;;;;;;;;;;;;;;;;2089260;28;19944;-47
2022/06/21 02:53:07;;;;;;;;;;;;;;;;;;2089259;28;19928;-46
2022/06/21 02:54:08;;;;;;;;;;;;;;;;;;2089323;28;19921;-46
2022/06/21 02:55:09;;;;;;;;;;;;;;;;;;2089300;28;20019;-46
2022/06/21 02:56:10;;;;;;;;;;;;;;;;;;2089228;28;19921;-46
2022/06/21 02:57:11;;;;;;;;;;;;;;;;;;2089295;28;19943;-46
2022/06/21 02:58:12;;;;;;;;;;;;;;;;;;2089393;28;19927;-46
2022/06/21 02:59:13;;;;;;;;;;;;;;;;;;2089363;28;19927;-46
2022/06/21 03:00:13;;;;;;;;;;;;;;;;;;2089369;28;20287;-46
2022/06/21 03:01:15;;;;;;;;;;;;;;;;;;2089466;28;19971;-43
2022/06/21 03:02:16;;;;;;;;;;;;;;;;;;2089444;28;20400;-43
2022/06/21 03:03:18;;;;;;;;;;;;;;;;;;2089385;28;19943;-43
2022/06/21 03:04:19;;;;;;;;;;;;;;;;;;2089440;28;19921;-43
2022/06/21 03:05:20;;;;;;;;;;;;;;;;;;2089493;28;19921;-45
2022/06/21 03:06:20;;;;;;;;;;;;;;;;;;2089220;28;20210;-46
2022/06/21 03:07:21;;;;;;;;;;;;;;;;;;2089497;28;19970;-47
2022/06/21 03:08:22;;;;;;;;;;;;;;;;;;2089174;28;19968;-46
2022/06/21 03:09:23;;;;;;;;;;;;;;;;;;2089239;28;19921;-46
2022/06/21 03:10:26;;;;;;;;;;;;;;;;;;2089199;28;19925;-46
2022/06/21 03:11:28;;;;;;;;;;;;;;;;;;2084324;28;19928;-46
2022/06/21 03:12:28;;;;;;;;;;;;;;;;;;2081162;28;20000;-47
2022/06/21 03:13:30;;;;;;;;;;;;;;;;;;2081147;28;19920;-46
2022/06/21 03:14:30;;;;;;;;;;;;;;;;;;2080987;28;20327;-46
2022/06/21 03:15:31;;;;;;;;;;;;;;;;;;2081379;28;19921;-44
2022/06/21 03:16:32;;;;;;;;;;;;;;;;;;2080906;28;20405;-44
2022/06/21 03:17:33;;;;;;;;;;;;;;;;;;2081045;28;19967;-43
2022/06/21 03:18:34;;;;;;;;;;;;;;;;;;2081209;28;19921;-46
2022/06/21 03:19:35;;;;;;;;;;;;;;;;;;2081309;28;20328;-46
2022/06/21 03:20:36;;;;;;;;;;;;;;;;;;2081474;28;20286;-46
2022/06/21 03:21:37;;;;;;;;;;;;;;;;;;2082417;28;19971;-46
2022/06/21 03:22:38;;;;;;;;;;;;;;;;;;2082321;28;20228;-46
2022/06/21 03:23:39;;;;;;;;;;;;;;;;;;2082242;28;19927;-51
2022/06/21 03:24:39;;;;;;;;;;;;;;;;;;2082375;28;20012;-46
2022/06/21 03:25:40;;;;;;;;;;;;;;;;;;2082541;28;19925;-46
2022/06/21 03:26:41;;;;;;;;;;;;;;;;;;2082212;28;19956;-47
2022/06/21 03:27:42;;;;;;;;;;;;;;;;;;2082655;28;20005;-44
2022/06/21 03:28:45;;;;;;;;;;;;;;;;;;2082482;28;20403;-46
2022/06/21 03:29:46;;;;;;;;;;;;;;;;;;2082292;28;20004;-46
2022/06/21 03:30:46;;;;;;;;;;;;;;;;;;2082243;28;19928;-46
2022/06/21 03:31:48;;;;;;;;;;;;;;;;;;2082383;28;20106;-47
2022/06/21 03:32:48;;;;;;;;;;;;;;;;;;2082338;28;20008;-46
2022/06/21 03:33:50;;;;;;;;;;;;;;;;;;2082292;28;20333;-46
2022/06/21 03:34:50;;;;;;;;;;;;;;;;;;2082297;28;20400;-46
2022/06/21 03:35:51;;;;;;;;;;;;;;;;;;2082281;28;20013;-46
2022/06/21 03:36:52;;;;;;;;;;;;;;;;;;2082272;28;20066;-46
2022/06/21 03:37:53;;;;;;;;;;;;;;;;;;2082279;28;19921;-46
2022/06/21 03:38:54;;;;;;;;;;;;;;;;;;2082127;28;19974;-47
2022/06/21 03:42:34;;;;;;;;;;;;;;;;;;2082370;28;19925;-46
2022/06/21 03:43:34;;;;;;;;;;;;;;;;;;2082242;28;20024;-46
2022/06/21 03:44:36;;;;;;;;;;;;;;;;;;2082317;28;19921;-47
2022/06/21 03:45:37;;;;;;;;;;;;;;;;;;2082622;28;19967;-45
2022/06/21 03:46:38;;;;;;;;;;;;;;;;;;2082378;28;20229;-47
2022/06/21 03:47:38;;;;;;;;;;;;;;;;;;2082338;28;19967;-46
2022/06/21 03:48:39;;;;;;;;;;;;;;;;;;2082174;28;20382;-47
2022/06/21 03:49:40;;;;;;;;;;;;;;;;;;2082326;28;19971;-46
2022/06/21 03:50:41;;;;;;;;;;;;;;;;;;2082180;28;19925;-49
2022/06/21 03:51:42;;;;;;;;;;;;;;;;;;2082414;28;19967;-44
2022/06/21 03:52:43;;;;;;;;;;;;;;;;;;2082317;28;20000;-44
2022/06/21 03:53:44;;;;;;;;;;;;;;;;;;2082344;28;19921;-43
2022/06/21 03:54:45;;;;;;;;;;;;;;;;;;2082106;28;19925;-44
2022/06/21 03:55:45;;;;;;;;;;;;;;;;;;2082238;28;20437;-46
2022/06/21 03:56:47;;;;;;;;;;;;;;;;;;2082224;28;19927;-46
2022/06/21 03:57:47;;;;;;;;;;;;;;;;;;2082084;28;20359;-46
2022/06/21 03:58:48;;;;;;;;;;;;;;;;;;2082477;28;20461;-44
2022/06/21 03:59:49;;;;;;;;;;;;;;;;;;2082121;28;20400;-44
2022/06/21 04:00:50;;;;;;;;;;;;;;;;;;2082145;28;19921;-44
2022/06/21 04:01:51;;;;;;;;;;;;;;;;;;2082486;28;19921;-43
2022/06/21 04:02:53;;;;;;;;;;;;;;;;;;2082432;28;19921;-43
2022/06/21 04:03:53;;;;;;;;;;;;;;;;;;2082086;28;19925;-43
2022/06/21 04:04:54;;;;;;;;;;;;;;;;;;2082264;28;20259;-44
2022/06/21 04:05:55;;;;;;;;;;;;;;;;;;2082396;28;20098;-47
2022/06/21 04:06:56;;;;;;;;;;;;;;;;;;2082328;28;19921;-43
2022/06/21 04:07:57;;;;;;;;;;;;;;;;;;2082069;28;19928;-43
2022/06/21 04:08:58;;;;;;;;;;;;;;;;;;2082141;28;19921;-43
2022/06/21 04:09:59;;;;;;;;;;;;;;;;;;2081985;28;20383;-43
2022/06/21 04:11:00;;;;;;;;;;;;;;;;;;2082733;28;19967;-44
2022/06/21 04:12:01;;;;;;;;;;;;;;;;;;2090376;28;19944;-43
2022/06/21 04:13:02;;;;;;;;;;;;;;;;;;2090399;28;20020;-46
2022/06/21 04:14:03;;;;;;;;;;;;;;;;;;2090303;28;20051;-47
2022/06/21 04:15:04;;;;;;;;;;;;;;;;;;2090306;28;19929;-46
2022/06/21 04:16:04;;;;;;;;;;;;;;;;;;2090431;28;20377;-44
2022/06/21 04:17:05;;;;;;;;;;;;;;;;;;2090302;28;19920;-43
2022/06/21 04:18:06;;;;;;;;;;;;;;;;;;2090360;28;19920;-44
2022/06/21 04:19:07;;;;;;;;;;;;;;;;;;2090307;28;19921;-44
2022/06/21 04:20:08;;;;;;;;;;;;;;;;;;2090238;28;19986;-44
2022/06/21 04:21:09;;;;;;;;;;;;;;;;;;2090166;28;19964;-43
2022/06/21 04:22:10;;;;;;;;;;;;;;;;;;2090089;28;19928;-43
2022/06/21 04:23:11;;;;;;;;;;;;;;;;;;2090158;28;20508;-43
2022/06/21 04:24:12;;;;;;;;;;;;;;;;;;2090231;28;19952;-43
2022/06/21 04:25:13;;;;;;;;;;;;;;;;;;2090431;28;19995;-47
2022/06/21 04:26:14;;;;;;;;;;;;;;;;;;2090067;28;19924;-46
2022/06/21 04:27:15;;;;;;;;;;;;;;;;;;2090529;28;19972;-46
2022/06/21 04:28:16;;;;;;;;;;;;;;;;;;2090141;28;20056;-46
2022/06/21 04:29:17;;;;;;;;;;;;;;;;;;2090533;28;19933;-46
2022/06/21 04:30:20;;;;;;;;;;;;;;;;;;2090418;28;20003;-43
2022/06/21 04:31:21;;;;;;;;;;;;;;;;;;2089859;28;20012;-43
2022/06/21 04:32:22;;;;;;;;;;;;;;;;;;2090468;28;19975;-44
2022/06/21 04:33:24;;;;;;;;;;;;;;;;;;2089917;28;19925;-43
2022/06/21 04:34:24;;;;;;;;;;;;;;;;;;2089577;28;19925;-43
2022/06/21 04:35:25;;;;;;;;;;;;;;;;;;2089615;28;19924;-43
2022/06/21 04:36:26;;;;;;;;;;;;;;;;;;2089696;28;20297;-43
2022/06/21 04:37:27;;;;;;;;;;;;;;;;;;2089570;28;19928;-44
2022/06/21 04:38:28;;;;;;;;;;;;;;;;;;2090125;28;19921;-43
2022/06/21 04:39:29;;;;;;;;;;;;;;;;;;2090304;28;19920;-43
2022/06/21 04:40:30;;;;;;;;;;;;;;;;;;2090039;28;20434;-43
2022/06/21 04:41:31;;;;;;;;;;;;;;;;;;2090091;28;19956;-45
2022/06/21 04:42:31;;;;;;;;;;;;;;;;;;2090081;28;19921;-43
2022/06/21 04:43:33;;;;;;;;;;;;;;;;;;2090032;28;19924;-44
2022/06/21 04:44:33;;;;;;;;;;;;;;;;;;2090050;28;19921;-44
2022/06/21 04:45:35;;;;;;;;;;;;;;;;;;2090414;28;19924;-44
2022/06/21 04:46:35;;;;;;;;;;;;;;;;;;2090397;28;20030;-43
2022/06/21 04:47:36;;;;;;;;;;;;;;;;;;2090256;28;19920;-46
2022/06/21 04:48:37;;;;;;;;;;;;;;;;;;2089948;28;19921;-46
2022/06/21 04:49:38;;;;;;;;;;;;;;;;;;2090051;28;19943;-46
2022/06/21 04:50:39;;;;;;;;;;;;;;;;;;2090133;28;19920;-47
2022/06/21 04:51:40;;;;;;;;;;;;;;;;;;2089917;28;19921;-46
2022/06/21 04:52:41;;;;;;;;;;;;;;;;;;2090054;28;19955;-46
2022/06/21 04:53:42;;;;;;;;;;;;;;;;;;2090200;28;19927;-46
2022/06/21 04:54:46;;;;;;;;;;;;;;;;;;2090635;28;19921;-47
2022/06/21 04:55:47;;;;;;;;;;;;;;;;;;2089821;28;19944;-46
2022/06/21 04:56:48;;;;;;;;;;;;;;;;;;2090146;28;19968;-46
2022/06/21 04:57:49;;;;;;;;;;;;;;;;;;2090240;28;19925;-44
2022/06/21 04:58:50;;;;;;;;;;;;;;;;;;2090031;28;20011;-44
2022/06/21 04:59:51;;;;;;;;;;;;;;;;;;2090277;28;19929;-44
2022/06/21 05:00:52;;;;;;;;;;;;;;;;;;2090223;28;19921;-46
2022/06/21 05:01:53;;;;;;;;;;;;;;;;;;2089934;28;19921;-45
2022/06/21 05:02:54;;;;;;;;;;;;;;;;;;2090184;28;19921;-43
2022/06/21 05:03:55;;;;;;;;;;;;;;;;;;2090181;28;19924;-46
2022/06/21 05:04:56;;;;;;;;;;;;;;;;;;2089895;28;19963;-48
2022/06/21 05:05:56;;;;;;;;;;;;;;;;;;2089894;28;19921;-48
2022/06/21 05:06:57;;;;;;;;;;;;;;;;;;2089908;28;19921;-47
2022/06/21 05:07:58;;;;;;;;;;;;;;;;;;2090133;28;19998;-47
2022/06/21 05:08:59;;;;;;;;;;;;;;;;;;2090104;28;20294;-46
2022/06/21 05:10:03;;;;;;;;;;;;;;;;;;2090052;28;19969;-46
2022/06/21 05:11:04;;;;;;;;;;;;;;;;;;2088108;28;19925;-46
2022/06/21 05:12:04;;;;;;;;;;;;;;;;;;2081753;28;19956;-46
2022/06/21 05:13:05;;;;;;;;;;;;;;;;;;2081878;28;19927;-46
2022/06/21 05:14:06;;;;;;;;;;;;;;;;;;2081756;28;19921;-47
2022/06/21 05:15:07;;;;;;;;;;;;;;;;;;2082071;28;19956;-41
2022/06/21 05:16:08;;;;;;;;;;;;;;;;;;2081769;28;20012;-46
2022/06/21 05:17:09;;;;;;;;;;;;;;;;;;2081766;28;19971;-45
2022/06/21 05:18:10;;;;;;;;;;;;;;;;;;2082014;28;20339;-46
2022/06/21 05:19:12;;;;;;;;;;;;;;;;;;2081638;28;19928;-48
2022/06/21 05:20:13;;;;;;;;;;;;;;;;;;2081906;28;20021;-43
2022/06/21 05:21:14;;;;;;;;;;;;;;;;;;2081766;28;19925;-46
2022/06/21 05:22:14;;;;;;;;;;;;;;;;;;2081674;28;20022;-46
2022/06/21 05:23:15;;;;;;;;;;;;;;;;;;2081745;28;19970;-43
2022/06/21 05:24:16;;;;;;;;;;;;;;;;;;2081526;28;20387;-43
2022/06/21 05:25:17;;;;;;;;;;;;;;;;;;2081596;28;19921;-43
2022/06/21 05:26:18;;;;;;;;;;;;;;;;;;2081571;28;19960;-43
2022/06/21 05:27:19;;;;;;;;;;;;;;;;;;2081621;28;19928;-43
2022/06/21 05:28:20;;;;;;;;;;;;;;;;;;2081534;28;20023;-43
2022/06/21 05:29:21;;;;;;;;;;;;;;;;;;2081607;28;19948;-45
2022/06/21 05:30:22;;;;;;;;;;;;;;;;;;2081575;28;19986;-43
2022/06/21 05:31:23;;;;;;;;;;;;;;;;;;2081560;28;19956;-44
2022/06/21 05:32:25;;;;;;;;;;;;;;;;;;2081675;28;20365;-47
2022/06/21 05:33:26;;;;;;;;;;;;;;;;;;2081531;28;20350;-45
2022/06/21 05:34:27;;;;;;;;;;;;;;;;;;2088070;28;19967;-45
2022/06/21 05:35:28;;;;;;;;;;;;;;;;;;2089964;28;20015;-42
2022/06/21 05:36:29;;;;;;;;;;;;;;;;;;2089839;28;19920;-45
2022/06/21 05:37:29;;;;;;;;;;;;;;;;;;2089704;28;19963;-45
2022/06/21 05:38:31;;;;;;;;;;;;;;;;;;2089692;28;19966;-45
2022/06/21 05:39:31;;;;;;;;;;;;;;;;;;2090116;28;20015;-45
2022/06/21 05:40:33;;;;;;;;;;;;;;;;;;2090209;28;19924;-42
2022/06/21 05:41:33;;;;;;;;;;;;;;;;;;2089593;28;20445;-41
2022/06/21 05:42:34;;;;;;;;;;;;;;;;;;2089896;28;19925;-42
2022/06/21 05:43:35;;;;;;;;;;;;;;;;;;2089118;28;19924;-42
2022/06/21 05:44:36;;;;;;;;;;;;;;;;;;2089982;28;19920;-45
2022/06/21 05:45:37;;;;;;;;;;;;;;;;;;2090106;28;19921;-46
2022/06/21 05:46:38;;;;;;;;;;;;;;;;;;2089746;28;19927;-42
2022/06/21 05:47:39;;;;;;;;;;;;;;;;;;2089622;28;19928;-42
2022/06/21 05:48:40;;;;;;;;;;;;;;;;;;2089642;28;19920;-42
2022/06/21 05:49:41;;;;;;;;;;;;;;;;;;2089623;28;20003;-42
2022/06/21 05:50:42;;;;;;;;;;;;;;;;;;2089998;28;19928;-45
2022/06/21 05:51:42;;;;;;;;;;;;;;;;;;2089823;28;19921;-46
2022/06/21 05:52:43;;;;;;;;;;;;;;;;;;2089849;28;19927;-45
2022/06/21 05:53:44;;;;;;;;;;;;;;;;;;2089990;28;20328;-44
2022/06/21 05:54:45;;;;;;;;;;;;;;;;;;2090005;28;19928;-45
2022/06/21 05:55:46;;;;;;;;;;;;;;;;;;2089432;28;19999;-45
2022/06/21 05:56:47;;;;;;;;;;;;;;;;;;2089901;28;20374;-47
2022/06/21 05:57:48;;;;;;;;;;;;;;;;;;2090124;28;20003;-42
2022/06/21 05:58:49;;;;;;;;;;;;;;;;;;2089962;28;20360;-46
2022/06/21 05:59:49;;;;;;;;;;;;;;;;;;2090425;28;20029;-45
2022/06/21 06:00:50;;;;;;;;;;;;;;;;;;2089549;28;20008;-46
2022/06/21 06:01:51;;;;;;;;;;;;;;;;;;2089747;28;19987;-45
2022/06/21 06:02:52;;;;;;;;;;;;;;;;;;2089732;28;19921;-46
2022/06/21 06:03:53;;;;;;;;;;;;;;;;;;2089690;28;19928;-45
2022/06/21 06:04:56;;;;;;;;;;;;;;;;;;2089628;28;19920;-45
2022/06/21 06:05:57;;;;;;;;;;;;;;;;;;2089778;28;19990;-43
2022/06/21 06:06:58;;;;;;;;;;;;;;;;;;2089754;28;20412;-42
2022/06/21 06:07:59;;;;;;;;;;;;;;;;;;2089511;28;19921;-42
2022/06/21 06:09:00;;;;;;;;;;;;;;;;;;2089639;28;19921;-45
2022/06/21 06:10:00;;;;;;;;;;;;;;;;;;2089810;28;19960;-42
2022/06/21 06:11:01;;;;;;;;;;;;;;;;;;2088342;28;19968;-42
2022/06/21 06:12:02;;;;;;;;;;;;;;;;;;2081448;28;19923;-42
2022/06/21 06:13:03;;;;;;;;;;;;;;;;;;2081654;28;19987;-45
2022/06/21 06:14:04;;;;;;;;;;;;;;;;;;2081349;28;19921;-46
2022/06/21 06:15:05;;;;;;;;;;;;;;;;;;2081613;28;19925;-45
2022/06/21 06:16:06;;;;;;;;;;;;;;;;;;2081207;28;20401;-46
2022/06/21 06:17:07;;;;;;;;;;;;;;;;;;2081579;28;20011;-47
2022/06/21 06:18:08;;;;;;;;;;;;;;;;;;2081816;28;19921;-45
2022/06/21 06:20:11;;;;;;;;;;;;;;;;;;2094600;28;19920;-42
2022/06/21 06:21:13;;;;;;;;;;;;;;;;;;2098455;28;19920;-45
2022/06/21 06:22:15;;;;;;;;;;;;;;;;;;2098151;28;19920;-44
2022/06/21 06:23:16;;;;;;;;;;;;;;;;;;2098306;28;19927;-47
2022/06/21 06:24:17;;;;;;;;;;;;;;;;;;2097970;28;20023;-42
2022/06/21 06:25:18;;;;;;;;;;;;;;;;;;2097804;28;19943;-42
2022/06/21 06:26:19;;;;;;;;;;;;;;;;;;2097682;28;20098;-43
2022/06/21 06:27:20;;;;;;;;;;;;;;;;;;2097851;28;19920;-43
2022/06/21 06:28:21;;;;;;;;;;;;;;;;;;2097698;28;20332;-43
2022/06/21 06:29:23;;;;;;;;;;;;;;;;;;2098051;28;19916;-43
2022/06/21 06:30:23;;;;;;;;;;;;;;;;;;2089435;28;19921;-45
2022/06/21 06:31:24;;;;;;;;;;;;;;;;;;2081306;28;20088;-43
2022/06/21 06:32:25;;;;;;;;;;;;;;;;;;2082001;28;19967;-43
2022/06/21 06:33:27;;;;;;;;;;;;;;;;;;2081336;28;19966;-46
2022/06/21 06:34:28;;;;;;;;;;;;;;;;;;2081730;28;19925;-45
2022/06/21 06:35:29;;;;;;;;;;;;;;;;;;2081240;28;19921;-46
2022/06/21 06:36:30;;;;;;;;;;;;;;;;;;2081308;28;20028;-43
2022/06/21 06:37:31;;;;;;;;;;;;;;;;;;2081480;28;20011;-46
2022/06/21 06:38:32;;;;;;;;;;;;;;;;;;2081198;28;20338;-46
2022/06/21 06:39:33;;;;;;;;;;;;;;;;;;2081913;28;19925;-45
2022/06/21 06:40:35;;;;;;;;;;;;;;;;;;2081347;28;19960;-46
2022/06/21 06:41:36;;;;;;;;;;;;;;;;;;2081122;28;20024;-46
2022/06/21 06:42:37;;;;;;;;;;;;;;;;;;2081315;28;19927;-43
2022/06/21 06:43:37;;;;;;;;;;;;;;;;;;2081298;28;20160;-44
2022/06/21 06:44:38;;;;;;;;;;;;;;;;;;2081373;28;19967;-46
2022/06/21 06:45:39;;;;;;;;;;;;;;;;;;2081264;28;20007;-47
2022/06/21 06:46:40;;;;;;;;;;;;;;;;;;2081369;28;20463;-47
2022/06/21 06:47:42;;;;;;;;;;;;;;;;;;2081852;28;19924;-43
2022/06/21 06:48:43;;;;;;;;;;;;;;;;;;2081301;28;20364;-47
2022/06/21 06:49:43;;;;;;;;;;;;;;;;;;2081163;28;19921;-47
2022/06/21 06:50:45;;;;;;;;;;;;;;;;;;2081185;28;19921;-46
2022/06/21 06:51:45;;;;;;;;;;;;;;;;;;2081518;28;19921;-46
2022/06/21 06:52:46;;;;;;;;;;;;;;;;;;2081224;28;19940;-46
2022/06/21 06:53:47;;;;;;;;;;;;;;;;;;2081153;28;19928;-46
2022/06/21 06:54:48;;;;;;;;;;;;;;;;;;2081963;28;19927;-46
2022/06/21 06:55:49;;;;;;;;;;;;;;;;;;2082407;28;19952;-46
2022/06/21 06:56:59;;;;;;;;;;;;;;;;;;2083565;28;19920;-46
2022/06/21 06:58:01;;;;;;;;;;;;;;;;;;2082721;28;20008;-46
2022/06/21 06:59:02;;;;;;;;;;;;;;;;;;2082816;28;20025;-43
2022/06/21 07:00:08;;;;;;;;;;;;;;;;;;2083234;28;19920;-43